createdAt,value
2023-03-12T00:00:02.265Z,54.55
2023-03-12T00:02:30.487Z,54.52
2023-03-12T00:04:57.219Z,55.62
2023-03-12T00:07:23.876Z,55.26
2023-03-12T00:09:50.623Z,55.10
2023-03-12T00:12:17.279Z,55.22
2023-03-12T00:14:43.938Z,54.79
2023-03-12T00:17:10.630Z,55.11
2023-03-12T00:19:37.185Z,54.58
2023-03-12T00:22:03.937Z,56.12
2023-03-12T00:24:30.663Z,55.46
2023-03-12T00:26:57.278Z,55.76
2023-03-12T00:29:23.944Z,56.34
2023-03-12T00:31:51.892Z,56.59
2023-03-12T00:34:18.732Z,54.50
2023-03-12T00:36:45.418Z,55.20
2023-03-12T00:39:12.157Z,54.96
2023-03-12T00:41:38.815Z,55.30
2023-03-12T00:44:06.410Z,55.76
2023-03-12T00:46:33.196Z,56.27
2023-03-12T00:48:59.884Z,56.83
2023-03-12T00:51:26.543Z,57.09
2023-03-12T00:53:53.336Z,56.33
2023-03-12T00:56:19.936Z,56.96
2023-03-12T00:58:46.682Z,56.68
2023-03-12T01:01:13.434Z,55.71
2023-03-12T01:03:40.154Z,55.77
2023-03-12T01:06:07.326Z,56.53
2023-03-12T01:08:34.167Z,56.23
2023-03-12T01:11:01.071Z,56.47
2023-03-12T01:13:27.939Z,56.91
2023-03-12T01:15:54.520Z,56.33
2023-03-12T01:18:21.354Z,58.12
2023-03-12T01:20:48.021Z,57.66
2023-03-12T01:23:16.193Z,58.17
2023-03-12T01:25:42.931Z,57.18
2023-03-12T01:28:09.761Z,57.34
2023-03-12T01:30:36.494Z,57.41
2023-03-12T01:33:03.198Z,56.72
2023-03-12T01:35:29.851Z,56.98
2023-03-12T01:37:56.814Z,55.92
2023-03-12T01:40:28.958Z,56.04
2023-03-12T01:42:57.875Z,55.46
2023-03-12T01:46:02.950Z,55.07
2023-03-12T01:48:34.122Z,55.08
2023-03-12T01:51:02.588Z,56.40
2023-03-12T01:53:30.177Z,55.39
2023-03-12T01:56:00.464Z,55.38
2023-03-12T01:58:29.029Z,55.60
2023-03-12T02:00:55.759Z,56.17
2023-03-12T02:03:22.741Z,56.02
2023-03-12T02:05:55.819Z,56.91
2023-03-12T02:08:24.194Z,54.33
2023-03-12T02:10:50.952Z,53.53
2023-03-12T02:13:18.491Z,53.62
2023-03-12T02:15:45.381Z,54.35
2023-03-12T02:18:16.881Z,54.57
2023-03-12T02:21:11.672Z,54.22
2023-03-12T02:23:50.195Z,54.20
2023-03-12T02:26:19.004Z,54.19
2023-03-12T02:28:46.607Z,54.47
2023-03-12T02:31:17.872Z,54.93
2023-03-12T02:33:44.545Z,54.53
2023-03-12T02:36:11.269Z,53.53
2023-03-12T02:38:40.659Z,53.38
2023-03-12T02:41:21.880Z,54.66
2023-03-12T02:44:16.780Z,53.75
2023-03-12T02:46:48.306Z,53.64
2023-03-12T02:49:16.559Z,53.90
2023-03-12T02:51:44.748Z,54.12
2023-03-12T02:54:12.803Z,54.34
2023-03-12T02:56:39.550Z,54.71
2023-03-12T02:59:07.372Z,53.72
2023-03-12T03:01:34.625Z,54.86
2023-03-12T03:04:03.242Z,53.06
2023-03-12T03:06:31.386Z,52.86
2023-03-12T03:08:58.990Z,53.09
2023-03-12T03:11:26.004Z,53.74
2023-03-12T03:13:53.107Z,51.56
2023-03-12T03:16:20.344Z,51.03
2023-03-12T03:18:47.218Z,51.77
2023-03-12T03:21:16.773Z,52.23
2023-03-12T03:23:48.093Z,51.42
2023-03-12T03:26:16.062Z,50.13
2023-03-12T03:31:08.691Z,50.17
2023-03-12T03:33:37.271Z,50.75
2023-03-12T03:36:04.960Z,50.21
2023-03-12T03:38:32.884Z,50.43
2023-03-12T03:40:59.900Z,51.15
2023-03-12T03:43:26.823Z,51.16
2023-03-12T03:46:05.469Z,50.97
2023-03-12T03:48:32.922Z,50.66
2023-03-12T03:51:04.766Z,51.88
2023-03-12T03:53:31.442Z,52.23
2023-03-12T03:55:58.145Z,50.96
2023-03-12T03:58:24.800Z,51.63
2023-03-12T04:00:51.467Z,52.40
2023-03-12T04:03:18.171Z,51.83
2023-03-12T04:05:45.434Z,51.48
2023-03-12T04:08:13.310Z,50.21
2023-03-12T04:10:40.142Z,49.62
2023-03-12T04:13:06.868Z,50.09
2023-03-12T04:15:33.526Z,49.20
2023-03-12T04:18:00.215Z,50.15
2023-03-12T04:20:27.006Z,50.35
2023-03-12T04:22:53.570Z,50.63
2023-03-12T04:25:20.156Z,50.42
2023-03-12T04:27:48.444Z,49.92
2023-03-12T04:30:15.269Z,50.24
2023-03-12T04:32:42.055Z,50.57
2023-03-12T04:35:08.820Z,49.65
2023-03-12T04:37:35.475Z,51.01
2023-03-12T04:40:06.129Z,50.26
2023-03-12T04:42:34.549Z,49.76
2023-03-12T04:45:02.265Z,50.48
2023-03-12T04:47:30.885Z,49.43
2023-03-12T04:49:57.538Z,48.71
2023-03-12T04:52:24.445Z,49.89
2023-03-12T04:54:51.180Z,48.80
2023-03-12T04:57:17.835Z,47.71
2023-03-12T04:59:44.466Z,46.83
2023-03-12T05:02:11.134Z,46.10
2023-03-12T05:04:37.850Z,46.34
2023-03-12T05:07:04.612Z,45.67
2023-03-12T05:09:31.371Z,44.73
2023-03-12T05:11:58.831Z,43.95
2023-03-12T05:14:25.483Z,44.92
2023-03-12T05:16:52.180Z,43.85
2023-03-12T05:19:18.866Z,45.18
2023-03-12T05:21:45.673Z,45.12
2023-03-12T05:24:12.855Z,44.85
2023-03-12T05:26:39.906Z,45.37
2023-03-12T05:29:06.852Z,44.87
2023-03-12T05:31:35.501Z,44.83
2023-03-12T05:34:04.023Z,45.20
2023-03-12T05:36:30.677Z,45.06
2023-03-12T05:38:57.425Z,45.22
2023-03-12T05:41:27.801Z,44.71
2023-03-12T05:43:56.484Z,46.08
2023-03-12T05:46:24.547Z,47.45
2023-03-12T05:48:51.527Z,46.72
2023-03-12T05:51:18.260Z,46.62
2023-03-12T05:53:44.978Z,46.72
2023-03-12T05:56:14.805Z,46.85
2023-03-12T05:58:41.445Z,47.04
2023-03-12T06:01:23.701Z,47.44
2023-03-12T06:03:50.654Z,45.72
2023-03-12T06:06:18.655Z,46.52
2023-03-12T06:08:45.801Z,47.42
2023-03-12T06:11:12.795Z,47.43
2023-03-12T06:13:39.807Z,47.36
2023-03-12T06:16:11.471Z,46.90
2023-03-12T06:18:38.288Z,47.38
2023-03-12T06:21:13.564Z,47.06
2023-03-12T06:23:40.327Z,47.45
2023-03-12T06:26:07.094Z,46.90
2023-03-12T06:28:34.103Z,47.43
2023-03-12T06:31:01.222Z,46.92
2023-03-12T06:33:27.938Z,46.71
2023-03-12T06:35:56.419Z,46.66
2023-03-12T06:38:23.600Z,47.45
2023-03-12T06:40:57.897Z,46.69
2023-03-12T06:43:25.820Z,45.04
2023-03-12T06:45:54.882Z,45.44
2023-03-12T06:48:22.360Z,44.67
2023-03-12T06:50:49.252Z,45.72
2023-03-12T06:53:15.931Z,45.55
2023-03-12T06:55:44.092Z,46.04
2023-03-12T06:58:11.568Z,45.70
2023-03-12T07:00:38.355Z,46.56
2023-03-12T07:03:05.101Z,46.37
2023-03-12T07:05:31.810Z,46.59
2023-03-12T07:07:58.746Z,47.88
2023-03-12T07:10:28.131Z,49.77
2023-03-12T07:12:55.614Z,51.16
2023-03-12T07:15:22.571Z,51.33
2023-03-12T07:17:49.249Z,51.27
2023-03-12T07:20:16.077Z,49.80
2023-03-12T07:22:42.730Z,49.12
2023-03-12T07:25:09.997Z,48.18
2023-03-12T07:27:36.787Z,49.99
2023-03-12T07:30:04.488Z,49.33
2023-03-12T07:32:33.607Z,48.75
2023-03-12T07:35:00.459Z,49.14
2023-03-12T07:37:27.140Z,48.56
2023-03-12T07:39:54.808Z,47.20
2023-03-12T07:42:22.056Z,45.79
2023-03-12T07:44:48.805Z,48.08
2023-03-12T07:47:23.725Z,47.81
2023-03-12T07:49:52.198Z,46.72
2023-03-12T07:52:20.282Z,46.79
2023-03-12T07:54:47.755Z,48.35
2023-03-12T07:57:15.000Z,48.07
2023-03-12T07:59:41.788Z,48.37
2023-03-12T08:02:10.955Z,47.49
2023-03-12T08:04:37.769Z,47.18
2023-03-12T08:07:06.884Z,44.92
2023-03-12T08:09:35.099Z,46.19
2023-03-12T08:12:02.594Z,45.36
2023-03-12T08:14:31.747Z,44.07
2023-03-12T08:16:59.029Z,44.77
2023-03-12T08:19:26.181Z,45.22
2023-03-12T08:21:53.380Z,45.71
2023-03-12T08:24:21.720Z,46.13
2023-03-12T08:26:48.614Z,44.61
2023-03-12T08:29:16.374Z,44.53
2023-03-12T08:31:53.922Z,43.74
2023-03-12T08:34:28.382Z,45.40
2023-03-12T08:36:55.009Z,45.36
2023-03-12T08:39:21.614Z,44.04
2023-03-12T08:41:49.299Z,45.80
2023-03-12T08:44:15.932Z,44.63
2023-03-12T08:46:42.552Z,44.79
2023-03-12T08:49:09.198Z,44.82
2023-03-12T08:51:35.832Z,44.72
2023-03-12T08:54:02.508Z,43.83
2023-03-12T08:56:29.193Z,43.71
2023-03-12T08:58:55.880Z,42.85
2023-03-12T09:01:22.473Z,44.79
2023-03-12T09:03:51.036Z,44.05
2023-03-12T09:06:19.489Z,43.66
2023-03-12T09:08:47.343Z,42.54
2023-03-12T09:11:15.291Z,44.37
2023-03-12T09:14:05.128Z,44.11
2023-03-12T09:16:29.251Z,43.69
2023-03-12T09:18:55.922Z,43.82
2023-03-12T09:21:22.565Z,43.49
2023-03-12T09:23:49.537Z,42.89
2023-03-12T09:26:16.229Z,43.41
2023-03-12T09:28:45.135Z,43.46
2023-03-12T09:31:12.254Z,43.16
2023-03-12T09:33:39.235Z,42.42
2023-03-12T09:36:06.433Z,41.74
2023-03-12T09:38:35.419Z,41.21
2023-03-12T09:41:05.868Z,42.17
2023-03-12T09:43:36.352Z,42.01
2023-03-12T09:46:04.834Z,40.91
2023-03-12T09:48:34.674Z,40.84
2023-03-12T09:51:14.098Z,40.36
2023-03-12T09:53:47.087Z,41.00
2023-03-12T09:56:17.632Z,41.97
2023-03-12T09:58:48.260Z,41.05
2023-03-12T10:01:36.965Z,39.86
2023-03-12T10:04:22.105Z,41.33
2023-03-12T10:07:13.924Z,42.24
2023-03-12T10:10:07.381Z,40.22
2023-03-12T10:13:04.353Z,42.03
2023-03-12T10:16:05.327Z,41.33
2023-03-12T10:18:48.494Z,41.23
2023-03-12T10:21:26.509Z,41.73
2023-03-12T10:24:25.084Z,41.63
2023-03-12T10:26:55.223Z,42.00
2023-03-12T10:29:24.271Z,41.03
2023-03-12T10:32:11.485Z,40.58
2023-03-12T10:34:43.106Z,40.45
2023-03-12T10:37:30.722Z,42.28
2023-03-12T10:39:59.660Z,41.21
2023-03-12T10:42:29.949Z,39.99
2023-03-12T10:45:01.162Z,40.24
2023-03-12T10:47:27.698Z,39.30
2023-03-12T10:49:54.479Z,39.67
2023-03-12T10:52:23.156Z,40.27
2023-03-12T10:54:52.251Z,40.63
2023-03-12T10:57:21.038Z,40.49
2023-03-12T10:59:53.742Z,39.77
2023-03-12T11:02:45.350Z,40.58
2023-03-12T11:05:32.264Z,39.47
2023-03-12T11:08:00.450Z,39.47
2023-03-12T11:10:37.746Z,39.49
2023-03-12T11:13:20.577Z,38.42
2023-03-12T11:15:48.202Z,38.96
2023-03-12T11:18:32.290Z,39.55
2023-03-12T11:21:10.792Z,40.70
2023-03-12T11:23:40.890Z,40.15
2023-03-12T11:26:13.603Z,39.18
2023-03-12T11:29:02.214Z,39.86
2023-03-12T11:31:34.844Z,38.66
2023-03-12T11:34:13.737Z,40.17
2023-03-12T11:37:04.216Z,39.41
2023-03-12T11:39:56.756Z,39.35
2023-03-12T11:42:39.584Z,38.79
2023-03-12T11:45:37.616Z,39.67
2023-03-12T11:48:10.949Z,36.87
2023-03-12T11:50:43.617Z,37.49
2023-03-12T11:53:20.240Z,35.47
2023-03-12T11:56:26.366Z,35.45
2023-03-12T11:59:06.458Z,35.74
2023-03-12T12:01:49.020Z,37.79
2023-03-12T12:04:34.152Z,38.76
2023-03-12T12:07:17.657Z,37.35
2023-03-12T12:09:58.021Z,37.45
2023-03-12T12:12:36.579Z,36.96
2023-03-12T12:15:14.833Z,35.91
2023-03-12T12:17:47.044Z,36.71
2023-03-12T12:20:47.898Z,36.55
2023-03-12T12:23:42.074Z,37.16
2023-03-12T12:26:29.236Z,36.56
2023-03-12T12:29:20.171Z,37.68
2023-03-12T12:31:59.038Z,37.81
2023-03-12T12:34:34.576Z,38.19
2023-03-12T12:37:39.089Z,38.05
2023-03-12T12:40:10.997Z,38.80
2023-03-12T12:43:04.504Z,36.19
2023-03-12T12:45:31.324Z,36.50
2023-03-12T12:48:06.552Z,36.63
2023-03-12T12:50:38.747Z,37.10
2023-03-12T12:53:21.844Z,36.84
2023-03-12T12:56:03.050Z,36.97
2023-03-12T12:58:47.403Z,37.94
2023-03-12T13:01:16.100Z,38.38
2023-03-12T13:03:44.064Z,37.86
2023-03-12T13:06:11.552Z,37.33
2023-03-12T13:08:42.296Z,37.92
2023-03-12T13:11:18.689Z,37.01
2023-03-12T13:13:51.100Z,36.35
2023-03-12T13:16:20.910Z,37.59
2023-03-12T13:19:05.296Z,37.26
2023-03-12T13:21:55.431Z,38.75
2023-03-12T13:24:33.838Z,37.65
2023-03-12T13:27:24.818Z,36.93
2023-03-12T13:29:57.069Z,36.72
2023-03-12T13:32:57.915Z,36.77
2023-03-12T13:35:24.546Z,37.36
2023-03-12T13:37:51.136Z,37.30
2023-03-12T13:40:29.628Z,37.37
2023-03-12T13:43:14.304Z,36.72
2023-03-12T13:45:56.042Z,36.09
2023-03-12T13:48:24.310Z,37.30
2023-03-12T13:51:21.570Z,35.94
2023-03-12T13:53:55.903Z,37.28
2023-03-12T13:56:29.083Z,37.04
2023-03-12T13:59:07.374Z,36.51
2023-03-12T14:01:41.585Z,35.82
2023-03-12T14:04:15.848Z,35.15
2023-03-12T14:07:03.628Z,35.43
2023-03-12T14:09:59.619Z,35.67
2023-03-12T14:12:35.239Z,35.30
2023-03-12T14:15:01.793Z,35.53
2023-03-12T14:17:31.638Z,36.65
2023-03-12T14:20:01.699Z,35.96
2023-03-12T14:22:39.559Z,35.74
2023-03-12T14:25:17.596Z,35.64
2023-03-12T14:27:48.503Z,35.77
2023-03-12T14:30:31.944Z,35.78
2023-03-12T14:33:01.336Z,35.14
2023-03-12T14:35:33.893Z,35.64
2023-03-12T14:38:26.556Z,35.69
2023-03-12T14:41:05.193Z,35.43
2023-03-12T14:43:35.343Z,35.18
2023-03-12T14:46:05.868Z,35.30
2023-03-12T14:48:35.099Z,35.61
2023-03-12T14:51:03.770Z,35.66
2023-03-12T14:53:33.832Z,36.12
2023-03-12T14:56:04.068Z,36.94
2023-03-12T14:58:31.894Z,35.96
2023-03-12T15:01:02.012Z,36.99
2023-03-12T15:03:30.708Z,36.27
2023-03-12T15:05:58.053Z,35.85
2023-03-12T15:08:25.936Z,36.05
2023-03-12T15:10:58.501Z,35.61
2023-03-12T15:13:27.433Z,36.26
2023-03-12T15:15:56.076Z,35.30
2023-03-12T15:18:28.866Z,35.04
2023-03-12T15:20:57.394Z,36.05
2023-03-12T15:23:25.992Z,36.40
2023-03-12T15:26:13.856Z,35.64
2023-03-12T15:28:41.135Z,37.35
2023-03-12T15:31:15.100Z,35.84
2023-03-12T15:33:43.558Z,37.34
2023-03-12T15:36:19.011Z,36.20
2023-03-12T15:39:19.575Z,36.44
2023-03-12T15:41:49.572Z,35.89
2023-03-12T15:44:25.110Z,36.54
2023-03-12T15:46:56.219Z,37.00
2023-03-12T15:49:29.966Z,36.64
2023-03-12T15:52:19.646Z,36.98
2023-03-12T15:55:02.936Z,37.30
2023-03-12T15:57:30.328Z,38.88
2023-03-12T16:00:12.207Z,38.83
2023-03-12T16:02:47.871Z,38.55
2023-03-12T16:05:14.604Z,38.04
2023-03-12T16:07:41.240Z,38.77
2023-03-12T16:10:14.001Z,38.54
2023-03-12T16:12:42.322Z,37.56
2023-03-12T16:15:18.723Z,38.09
2023-03-12T16:17:45.456Z,39.39
2023-03-12T16:20:15.212Z,38.26
2023-03-12T16:22:42.620Z,38.86
2023-03-12T16:25:12.121Z,39.29
2023-03-12T16:27:46.497Z,39.40
2023-03-12T16:30:25.432Z,39.01
2023-03-12T16:32:52.689Z,38.65
2023-03-12T16:35:21.061Z,39.58
2023-03-12T16:37:47.799Z,38.71
2023-03-12T16:40:30.784Z,38.74
2023-03-12T16:43:02.868Z,38.84
2023-03-12T16:45:31.565Z,39.65
2023-03-12T16:48:01.338Z,39.30
2023-03-12T16:50:28.710Z,39.23
2023-03-12T16:52:55.618Z,39.41
2023-03-12T16:55:25.728Z,39.61
2023-03-12T16:57:55.500Z,38.96
2023-03-12T17:00:24.756Z,40.39
2023-03-12T17:02:57.830Z,40.08
2023-03-12T17:05:26.275Z,40.48
2023-03-12T17:07:53.058Z,39.43
2023-03-12T17:10:20.126Z,38.70
2023-03-12T17:12:48.478Z,39.06
2023-03-12T17:15:22.947Z,39.52
2023-03-12T17:17:50.074Z,38.89
2023-03-12T17:20:20.456Z,38.17
2023-03-12T17:22:47.330Z,38.83
2023-03-12T17:25:26.213Z,38.99
2023-03-12T17:27:53.103Z,38.04
2023-03-12T17:30:22.130Z,38.37
2023-03-12T17:32:50.273Z,38.45
2023-03-12T17:35:18.169Z,38.37
2023-03-12T17:37:45.582Z,38.89
2023-03-12T17:40:12.695Z,38.64
2023-03-12T17:42:39.309Z,38.13
2023-03-12T17:45:08.015Z,37.99
2023-03-12T17:47:35.975Z,38.18
2023-03-12T17:50:04.009Z,37.75
2023-03-12T17:52:32.201Z,37.87
2023-03-12T17:54:58.935Z,37.79
2023-03-12T17:57:25.586Z,38.50
2023-03-12T17:59:52.800Z,39.15
2023-03-12T18:02:21.351Z,39.57
2023-03-12T18:04:48.096Z,39.25
2023-03-12T18:07:14.784Z,39.24
2023-03-12T18:09:41.484Z,39.69
2023-03-12T18:12:10.396Z,39.64
2023-03-12T18:14:37.094Z,38.21
2023-03-12T18:17:03.810Z,37.67
2023-03-12T18:19:30.723Z,39.08
2023-03-12T18:21:57.345Z,39.92
2023-03-12T18:24:23.936Z,39.61
2023-03-12T18:26:52.224Z,38.97
2023-03-12T18:29:18.868Z,40.10
2023-03-12T18:31:45.518Z,40.13
2023-03-12T18:34:12.272Z,40.17
2023-03-12T18:36:38.967Z,39.78
2023-03-12T18:39:06.662Z,39.71
2023-03-12T18:41:33.457Z,39.10
2023-03-12T18:44:00.698Z,39.20
2023-03-12T18:46:27.965Z,39.21
2023-03-12T18:48:54.682Z,38.50
2023-03-12T18:51:21.306Z,39.84
2023-03-12T18:53:48.071Z,39.26
2023-03-12T18:56:15.029Z,39.39
2023-03-12T18:58:41.657Z,40.23
2023-03-12T19:01:08.452Z,40.18
2023-03-12T19:03:36.534Z,39.73
2023-03-12T19:06:11.774Z,39.41
2023-03-12T19:08:39.572Z,39.89
2023-03-12T19:11:11.781Z,39.81
2023-03-12T19:13:38.939Z,40.22
2023-03-12T19:16:10.536Z,40.23
2023-03-12T19:18:38.912Z,40.96
2023-03-12T19:21:07.808Z,40.95
2023-03-12T19:23:35.708Z,41.00
2023-03-12T19:26:02.930Z,42.52
2023-03-12T19:28:29.757Z,40.96
2023-03-12T19:31:08.263Z,40.95
2023-03-12T19:33:35.468Z,40.76
2023-03-12T19:36:02.391Z,40.74
2023-03-12T19:38:29.336Z,40.88
2023-03-12T19:40:58.114Z,41.27
2023-03-12T19:43:26.054Z,41.78
2023-03-12T19:45:54.822Z,40.73
2023-03-12T19:48:22.024Z,40.70
2023-03-12T19:50:49.438Z,40.98
2023-03-12T19:53:17.745Z,41.69
2023-03-12T19:55:51.089Z,42.53
2023-03-12T19:58:17.777Z,42.31
2023-03-12T20:00:44.918Z,44.21
2023-03-12T20:03:11.689Z,42.26
2023-03-12T20:05:38.607Z,42.78
2023-03-12T20:08:05.485Z,42.01
2023-03-12T20:10:32.423Z,41.46
2023-03-12T20:12:59.384Z,41.44
2023-03-12T20:15:26.539Z,41.59
2023-03-12T20:18:03.342Z,41.63
2023-03-12T20:20:30.156Z,43.11
2023-03-12T20:22:58.875Z,42.94
2023-03-12T20:25:25.479Z,41.93
2023-03-12T20:27:52.116Z,42.20
2023-03-12T20:30:18.941Z,41.30
2023-03-12T20:32:45.685Z,40.29
2023-03-12T20:35:12.360Z,41.79
2023-03-12T20:37:38.966Z,43.57
2023-03-12T20:40:06.091Z,44.16
2023-03-12T20:42:32.890Z,44.69
2023-03-12T20:45:02.208Z,44.16
2023-03-12T20:47:28.824Z,43.58
2023-03-12T20:49:55.475Z,42.67
2023-03-12T20:52:22.191Z,42.63
2023-03-12T20:54:48.856Z,43.64
2023-03-12T20:57:15.474Z,44.70
2023-03-12T20:59:42.103Z,44.31
2023-03-12T21:02:13.697Z,43.08
2023-03-12T21:04:41.209Z,43.41
2023-03-12T21:07:07.821Z,43.61
2023-03-12T21:09:34.784Z,42.66
2023-03-12T21:12:02.270Z,42.02
2023-03-12T21:14:29.080Z,42.41
2023-03-12T21:16:56.258Z,41.76
2023-03-12T21:19:23.269Z,41.97
2023-03-12T21:21:49.928Z,41.73
2023-03-12T21:24:16.537Z,42.01
2023-03-12T21:26:43.170Z,40.81
2023-03-12T21:29:09.754Z,42.10
2023-03-12T21:31:36.440Z,42.58
2023-03-12T21:34:03.030Z,42.61
2023-03-12T21:36:29.890Z,42.96
2023-03-12T21:38:56.477Z,43.14
2023-03-12T21:41:23.841Z,42.26
2023-03-12T21:43:50.504Z,42.36
2023-03-12T21:46:19.850Z,43.16
2023-03-12T21:48:48.174Z,42.82
2023-03-12T21:51:16.676Z,42.64
2023-03-12T21:53:43.731Z,42.24
2023-03-12T21:56:11.091Z,42.83
2023-03-12T21:58:38.141Z,41.97
2023-03-12T22:01:13.629Z,42.05
2023-03-12T22:03:42.093Z,41.83
2023-03-12T22:06:10.117Z,42.33
2023-03-12T22:08:37.988Z,43.12
2023-03-12T22:11:06.201Z,42.34
2023-03-12T22:13:32.937Z,42.04
2023-03-12T22:16:02.540Z,41.86
2023-03-12T22:18:29.868Z,42.89
2023-03-12T22:20:59.882Z,43.95
2023-03-12T22:23:26.869Z,43.74
2023-03-12T22:25:53.869Z,43.25
2023-03-12T22:28:20.716Z,42.38
2023-03-12T22:30:47.769Z,43.89
2023-03-12T22:33:14.465Z,44.34
2023-03-12T22:35:47.923Z,43.61
2023-03-12T22:38:14.900Z,42.68
2023-03-12T22:40:42.222Z,44.23
2023-03-12T22:43:09.153Z,42.97
2023-03-12T22:45:36.206Z,42.93
2023-03-12T22:48:03.392Z,43.78
2023-03-12T22:50:30.385Z,42.96
2023-03-12T22:52:57.095Z,43.09
2023-03-12T22:55:23.724Z,45.25
2023-03-12T22:57:51.082Z,44.55
2023-03-12T23:00:22.809Z,44.57
2023-03-12T23:02:50.199Z,46.00
2023-03-12T23:05:17.442Z,45.22
2023-03-12T23:07:44.252Z,45.09
2023-03-12T23:10:11.395Z,45.55
2023-03-12T23:12:38.099Z,45.45
2023-03-12T23:15:05.716Z,46.05
2023-03-12T23:17:32.282Z,47.23
2023-03-12T23:19:58.871Z,49.09
2023-03-12T23:22:25.557Z,48.37
2023-03-12T23:24:52.686Z,47.80
2023-03-12T23:27:19.426Z,47.55
2023-03-12T23:29:46.116Z,46.51
2023-03-12T23:32:13.054Z,46.17
2023-03-12T23:34:39.700Z,46.01
2023-03-12T23:37:07.229Z,44.35
2023-03-12T23:39:42.073Z,43.55
2023-03-12T23:42:15.032Z,44.85
2023-03-12T23:44:41.665Z,43.90
2023-03-12T23:47:08.267Z,44.17
2023-03-12T23:49:35.185Z,44.48
2023-03-12T23:52:01.826Z,46.01
2023-03-12T23:54:28.511Z,48.51
2023-03-12T23:56:56.326Z,46.69
2023-03-12T23:59:22.939Z,46.14
